Thunder radar more information blitzortung!


Radar de pluja more information rain snow radar


Visita la nostra xarxa de llocs de meteo:

Template documentation
and downloads

And another site



Extreme low temperature From: 13-12-2017 09:00 Until: 09:59 warning for: Extreme low temperature Level: Yellow info button

Pagina Historial Weather Underground text

Diari Resum Agost 9, 2017 Unitats:  Tant    Imperial   Mètric
« Previous Dia
SegĂźent Dia »
Diari Setmana Mensual Anual Personalitzada
  Maxima: Minima: Media:
Temperatura: 81.9 °F /  27.7 °C 59 °F /  15.0 °C 70.9 °F /  21.6 °C
Punt de rosada: 60.4 °F /  15.8 °C 50.5 °F /  10.3 °C 57 °F /  13.9 °C
Humitat: 90 % 46 % 64 %
Wind Speed: 9.2 mph /  14.8 km/h - 3.4 mph /  5.4 km/h
RĂ fegues de vent: 9.2 mph /  14.8 km/h - -
Vent:- - South
Pression baro: 30.1 in /  1018.8 hPa 29.9 in /  1013.8 hPa -
Precipitacions: 0.31 in /  7.9 mm    
Historical Graphs
 
 
Dades de taula per Agost 9, 2017
Temps Temperatura Punt de rosada Pression baro Vent Wind Speed RĂ fegues de vent Humitat Rainfall Rate (Hourly)
00:00 66.9 °F /  19.4 °C 56.5 °F /  13.6 °C 29.9 in /  1013.8 hPa Calm     69 % 0 in /  0.0 mm
00:02 70.9 °F /  21.6 °C 59.4 °F /  15.2 °C 30 in /  1014.8 hPa Calm     67 % 0 in /  0.0 mm
00:07 70.7 °F /  21.5 °C 59.2 °F /  15.1 °C 30 in /  1014.8 hPa Calm     67 % 0 in /  0.0 mm
00:10 66.6 °F /  19.2 °C 56.5 °F /  13.6 °C 29.9 in /  1013.8 hPa Calm   1 mph /  1.6 km/h 70 % 0 in /  0.0 mm
00:20 66.6 °F /  19.2 °C 56.1 °F /  13.4 °C 29.9 in /  1013.8 hPa Calm   1 mph /  1.6 km/h 69 % 0 in /  0.0 mm
00:30 66.6 °F /  19.2 °C 56.1 °F /  13.4 °C 29.9 in /  1013.8 hPa SW 1 mph /  1.6 km/h 1 mph /  1.6 km/h 69 % 0 in /  0.0 mm
00:40 66.7 °F /  19.3 °C 56.7 °F /  13.7 °C 29.9 in /  1013.8 hPa Calm   2 mph /  3.2 km/h 70 % 0 in /  0.0 mm
00:50 66.6 °F /  19.2 °C 56.5 °F /  13.6 °C 29.9 in /  1013.8 hPa Calm   1 mph /  1.6 km/h 70 % 0 in /  0.0 mm
01:00 66.6 °F /  19.2 °C 56.5 °F /  13.6 °C 29.9 in /  1013.8 hPa WSW 1 mph /  1.6 km/h 2 mph /  3.2 km/h 70 % 0 in /  0.0 mm
01:10 66.9 °F /  19.4 °C 56.8 °F /  13.8 °C 29.9 in /  1013.8 hPa Calm   2 mph /  3.2 km/h 70 % 0 in /  0.0 mm
01:20 67.1 °F /  19.5 °C 55.8 °F /  13.2 °C 30 in /  1014.8 hPa North 3 mph /  4.8 km/h 4 mph /  6.4 km/h 67 % 0 in /  0.0 mm
01:30 66.7 °F /  19.3 °C 54.1 °F /  12.3 °C 30 in /  1014.8 hPa NNE 1 mph /  1.6 km/h 3 mph /  4.8 km/h 64 % 0 in /  0.0 mm
01:40 66.4 °F /  19.1 °C 53.4 °F /  11.9 °C 30 in /  1014.8 hPa NNE 1 mph /  1.6 km/h 3 mph /  4.8 km/h 63 % 0 in /  0.0 mm
01:50 66.2 °F /  19.0 °C 53.2 °F /  11.8 °C 30 in /  1014.8 hPa NNE 1 mph /  1.6 km/h 2 mph /  3.2 km/h 63 % 0 in /  0.0 mm
02:00 65.8 °F /  18.8 °C 53.2 °F /  11.8 °C 30 in /  1014.8 hPa NNE 1 mph /  1.6 km/h 2 mph /  3.2 km/h 64 % 0 in /  0.0 mm
02:10 65.7 °F /  18.7 °C 53.1 °F /  11.7 °C 29.9 in /  1013.8 hPa Calm   1 mph /  1.6 km/h 64 % 0 in /  0.0 mm
02:20 65.3 °F /  18.5 °C 52.9 °F /  11.6 °C 30 in /  1014.8 hPa Calm     64 % 0 in /  0.0 mm
02:30 66 °F /  18.9 °C 53.4 °F /  11.9 °C 30 in /  1014.8 hPa Calm   2 mph /  3.2 km/h 64 % 0 in /  0.0 mm
02:40 66.2 °F /  19.0 °C 52.9 °F /  11.6 °C 30 in /  1014.8 hPa NE 1 mph /  1.6 km/h 1 mph /  1.6 km/h 62 % 0 in /  0.0 mm
02:50 65.8 °F /  18.8 °C 52.5 °F /  11.4 °C 30 in /  1014.8 hPa NE 1 mph /  1.6 km/h 2 mph /  3.2 km/h 62 % 0 in /  0.0 mm
03:00 66.2 °F /  19.0 °C 52.3 °F /  11.3 °C 30 in /  1014.8 hPa NNE 1 mph /  1.6 km/h 2 mph /  3.2 km/h 61 % 0 in /  0.0 mm
03:10 67.6 °F /  19.8 °C 53.2 °F /  11.8 °C 30 in /  1014.8 hPa NNE 1 mph /  1.6 km/h 2 mph /  3.2 km/h 60 % 0 in /  0.0 mm
03:20 67.6 °F /  19.8 °C 52.9 °F /  11.6 °C 30 in /  1014.8 hPa NNE 1 mph /  1.6 km/h 2 mph /  3.2 km/h 59 % 0 in /  0.0 mm
03:30 68.4 °F /  20.2 °C 52.5 °F /  11.4 °C 30 in /  1014.8 hPa NNE 1 mph /  1.6 km/h 2 mph /  3.2 km/h 57 % 0 in /  0.0 mm
03:40 69.1 °F /  20.6 °C 52.7 °F /  11.5 °C 30 in /  1014.8 hPa NNE 2 mph /  3.2 km/h 3 mph /  4.8 km/h 56 % 0 in /  0.0 mm
03:50 68.9 °F /  20.5 °C 52.2 °F /  11.2 °C 30 in /  1014.8 hPa NE 3 mph /  4.8 km/h 4 mph /  6.4 km/h 55 % 0 in /  0.0 mm
04:00 70.3 °F /  21.3 °C 52.3 °F /  11.3 °C 30 in /  1014.8 hPa NE 1 mph /  1.6 km/h 4 mph /  6.4 km/h 53 % 0 in /  0.0 mm
04:10 70.9 °F /  21.6 °C 52.9 °F /  11.6 °C 30 in /  1014.8 hPa NE 1 mph /  1.6 km/h 2 mph /  3.2 km/h 53 % 0 in /  0.0 mm
04:20 71.2 °F /  21.8 °C 52.7 °F /  11.5 °C 30 in /  1014.8 hPa NNE 2 mph /  3.2 km/h 2 mph /  3.2 km/h 52 % 0 in /  0.0 mm
04:30 70.2 °F /  21.2 °C 50.5 °F /  10.3 °C 30 in /  1014.8 hPa ENE 2 mph /  3.2 km/h 4 mph /  6.4 km/h 50 % 0 in /  0.0 mm
04:40 72.5 °F /  22.5 °C 53.2 °F /  11.8 °C 30 in /  1014.8 hPa ENE 1 mph /  1.6 km/h 3 mph /  4.8 km/h 51 % 0 in /  0.0 mm
04:50 72.3 °F /  22.4 °C 52.5 °F /  11.4 °C 30 in /  1014.8 hPa Calm   4 mph /  6.4 km/h 50 % 0 in /  0.0 mm
05:00 73.2 °F /  22.9 °C 52.9 °F /  11.6 °C 30 in /  1014.8 hPa ENE 2 mph /  3.2 km/h 3 mph /  4.8 km/h 49 % 0 in /  0.0 mm
05:10 73 °F /  22.8 °C 52.7 °F /  11.5 °C 30 in /  1014.8 hPa ESE 1 mph /  1.6 km/h 3 mph /  4.8 km/h 49 % 0 in /  0.0 mm
05:20 73 °F /  22.8 °C 52.7 °F /  11.5 °C 30 in /  1014.8 hPa NW 1 mph /  1.6 km/h 2 mph /  3.2 km/h 49 % 0 in /  0.0 mm
10:29 75.6 °F /  24.2 °C 54.5 °F /  12.5 °C 30 in /  1014.8 hPa NE 2.3 mph /  3.7 km/h 3.1 mph /  5.0 km/h 48 % 0 in /  0.0 mm
10:30 75.6 °F /  24.2 °C 54.5 °F /  12.5 °C 30 in /  1014.8 hPa NE 4.6 mph /  7.4 km/h 4.6 mph /  7.4 km/h 48 % 0 in /  0.0 mm
10:33 74.5 °F /  23.6 °C 52.9 °F /  11.6 °C 30 in /  1014.8 hPa East 3.5 mph /  5.6 km/h 3.5 mph /  5.6 km/h 47 % 0 in /  0.0 mm
10:38 75.9 °F /  24.4 °C 54.9 °F /  12.7 °C 30 in /  1014.8 hPa South 3.5 mph /  5.6 km/h 3.5 mph /  5.6 km/h 48 % 0 in /  0.0 mm
10:43 75.7 °F /  24.3 °C 54.7 °F /  12.6 °C 30 in /  1014.8 hPa SW 5.8 mph /  9.3 km/h 5.8 mph /  9.3 km/h 48 % 0 in /  0.0 mm
10:44 75.4 °F /  24.1 °C 54.3 °F /  12.4 °C 30 in /  1014.8 hPa WSW 4.6 mph /  7.4 km/h 4.6 mph /  7.4 km/h 48 % 0 in /  0.0 mm
10:49 75.4 °F /  24.1 °C 54.3 °F /  12.4 °C 30 in /  1014.8 hPa WSW 3.3 mph /  5.3 km/h 3.3 mph /  5.3 km/h 48 % 0 in /  0.0 mm
10:54 75.6 °F /  24.2 °C 54 °F /  12.2 °C 30 in /  1014.8 hPa SSW 2.3 mph /  3.7 km/h 2.3 mph /  3.7 km/h 47 % 0 in /  0.0 mm
10:59 75.7 °F /  24.3 °C 54.7 °F /  12.6 °C 30 in /  1014.8 hPa West 1.2 mph /  1.9 km/h   48 % 0 in /  0.0 mm
11:04 75.9 °F /  24.4 °C 54.9 °F /  12.7 °C 30 in /  1014.8 hPa West 4.6 mph /  7.4 km/h 4.6 mph /  7.4 km/h 48 % 0 in /  0.0 mm
11:09 75.6 °F /  24.2 °C 54.5 °F /  12.5 °C 30 in /  1014.8 hPa ENE 1.4 mph /  2.3 km/h 1.4 mph /  2.3 km/h 48 % 0 in /  0.0 mm
11:14 75.7 °F /  24.3 °C 54.7 °F /  12.6 °C 30 in /  1014.8 hPa SW 1.2 mph /  1.9 km/h 1.2 mph /  1.9 km/h 48 % 0 in /  0.0 mm
11:19 75.7 °F /  24.3 °C 54.7 °F /  12.6 °C 30 in /  1014.8 hPa NNW 2.3 mph /  3.7 km/h 2.3 mph /  3.7 km/h 48 % 0 in /  0.0 mm
11:24 75.6 °F /  24.2 °C 54.5 °F /  12.5 °C 30 in /  1014.8 hPa NE 2.4 mph /  3.9 km/h 2.4 mph /  3.9 km/h 48 % 0 in /  0.0 mm
11:29 75.6 °F /  24.2 °C 54 °F /  12.2 °C 30 in /  1014.8 hPa SSW 2.3 mph /  3.7 km/h 2.3 mph /  3.7 km/h 47 % 0 in /  0.0 mm
11:34 76.3 °F /  24.6 °C 55.8 °F /  13.2 °C 30 in /  1014.8 hPa SW 5.8 mph /  9.3 km/h 5.8 mph /  9.3 km/h 49 % 0 in /  0.0 mm
11:39 76.8 °F /  24.9 °C 56.1 °F /  13.4 °C 30 in /  1014.8 hPa SSE 5.8 mph /  9.3 km/h 5.8 mph /  9.3 km/h 49 % 0 in /  0.0 mm
11:44 76.5 °F /  24.7 °C 55.9 °F /  13.3 °C 30 in /  1014.8 hPa WSW 3.5 mph /  5.6 km/h 3.5 mph /  5.6 km/h 49 % 0 in /  0.0 mm
11:49 76.8 °F /  24.9 °C 56.1 °F /  13.4 °C 30 in /  1014.8 hPa SSW 5.8 mph /  9.3 km/h 5.8 mph /  9.3 km/h 49 % 0 in /  0.0 mm
11:54 77.4 °F /  25.2 °C 56.7 °F /  13.7 °C 30 in /  1014.8 hPa West 4.6 mph /  7.4 km/h 4.6 mph /  7.4 km/h 49 % 0 in /  0.0 mm
11:59 77.2 °F /  25.1 °C 56.5 °F /  13.6 °C 30 in /  1014.8 hPa SW 5.8 mph /  9.3 km/h 5.8 mph /  9.3 km/h 49 % 0 in /  0.0 mm
12:04 77.7 °F /  25.4 °C 56.5 °F /  13.6 °C 30 in /  1014.8 hPa South 6.2 mph /  10.0 km/h 6.2 mph /  10.0 km/h 48 % 0 in /  0.0 mm
12:09 77.2 °F /  25.1 °C 55.9 °F /  13.3 °C 30 in /  1014.8 hPa SSW 5.8 mph /  9.3 km/h 5.8 mph /  9.3 km/h 48 % 0 in /  0.0 mm
12:14 77.4 °F /  25.2 °C 56.7 °F /  13.7 °C 30 in /  1014.8 hPa WSW 4.6 mph /  7.4 km/h 4.6 mph /  7.4 km/h 49 % 0 in /  0.0 mm
12:19 77.4 °F /  25.2 °C 56.1 °F /  13.4 °C 30 in /  1014.8 hPa West 4.6 mph /  7.4 km/h 4.6 mph /  7.4 km/h 48 % 0 in /  0.0 mm
12:24 78.8 °F /  26.0 °C 57.4 °F /  14.1 °C 30 in /  1014.8 hPa WNW 5.8 mph /  9.3 km/h 5.8 mph /  9.3 km/h 48 % 0 in /  0.0 mm
12:29 79.7 °F /  26.5 °C 58.3 °F /  14.6 °C 30 in /  1014.8 hPa SW 4.6 mph /  7.4 km/h 4.6 mph /  7.4 km/h 48 % 0 in /  0.0 mm
12:34 79.3 °F /  26.3 °C 57.9 °F /  14.4 °C 30 in /  1014.8 hPa WSW 5.8 mph /  9.3 km/h 5.8 mph /  9.3 km/h 48 % 0 in /  0.0 mm
12:39 80.4 °F /  26.9 °C 58.8 °F /  14.9 °C 30 in /  1014.8 hPa SSW 5.8 mph /  9.3 km/h 5.8 mph /  9.3 km/h 48 % 0 in /  0.0 mm
12:44 80.4 °F /  26.9 °C 58.3 °F /  14.6 °C 30 in /  1014.8 hPa SSW 5.8 mph /  9.3 km/h 5.8 mph /  9.3 km/h 47 % 0 in /  0.0 mm
12:49 81.3 °F /  27.4 °C 59.2 °F /  15.1 °C 29.9 in /  1013.8 hPa West 5.4 mph /  8.7 km/h 5.4 mph /  8.7 km/h 47 % 0 in /  0.0 mm
12:54 80.8 °F /  27.1 °C 58.1 °F /  14.5 °C 29.9 in /  1013.8 hPa SW 5.8 mph /  9.3 km/h 5.8 mph /  9.3 km/h 46 % 0 in /  0.0 mm
12:59 80.4 °F /  26.9 °C 58.3 °F /  14.6 °C 29.9 in /  1013.8 hPa SSW 4.6 mph /  7.4 km/h 4.6 mph /  7.4 km/h 47 % 0 in /  0.0 mm
13:04 79.9 °F /  26.6 °C 58.5 °F /  14.7 °C 29.9 in /  1013.8 hPa WSW 7.4 mph /  11.9 km/h 7.4 mph /  11.9 km/h 48 % 0 in /  0.0 mm
13:09 79.5 °F /  26.4 °C 58.1 °F /  14.5 °C 29.9 in /  1013.8 hPa WSW 6.4 mph /  10.3 km/h 6.4 mph /  10.3 km/h 48 % 0 in /  0.0 mm
13:14 79 °F /  26.1 °C 57.6 °F /  14.2 °C 29.9 in /  1013.8 hPa SW 6.9 mph /  11.1 km/h 6.9 mph /  11.1 km/h 48 % 0 in /  0.0 mm
13:19 78.8 °F /  26.0 °C 57.4 °F /  14.1 °C 29.9 in /  1013.8 hPa SSW 3.5 mph /  5.6 km/h 3.8 mph /  6.1 km/h 48 % 0 in /  0.0 mm
13:24 78.8 °F /  26.0 °C 57.4 °F /  14.1 °C 29.9 in /  1013.8 hPa WSW 3.8 mph /  6.1 km/h 3.8 mph /  6.1 km/h 48 % 0 in /  0.0 mm
13:29 78.6 °F /  25.9 °C 57.9 °F /  14.4 °C 29.9 in /  1013.8 hPa SW 5.8 mph /  9.3 km/h 5.8 mph /  9.3 km/h 49 % 0 in /  0.0 mm
13:34 79 °F /  26.1 °C 58.3 °F /  14.6 °C 29.9 in /  1013.8 hPa SW 3.6 mph /  5.8 km/h 3.6 mph /  5.8 km/h 49 % 0 in /  0.0 mm
13:39 79.5 °F /  26.4 °C 58.6 °F /  14.8 °C 29.9 in /  1013.8 hPa SSW 3.5 mph /  5.6 km/h 3.5 mph /  5.6 km/h 49 % 0 in /  0.0 mm
13:44 79.2 °F /  26.2 °C 58.5 °F /  14.7 °C 29.9 in /  1013.8 hPa SSW 8.7 mph /  14.0 km/h 8.7 mph /  14.0 km/h 49 % 0 in /  0.0 mm
13:49 80.8 °F /  27.1 °C 59.4 °F /  15.2 °C 29.9 in /  1013.8 hPa SW 6.9 mph /  11.1 km/h 6.9 mph /  11.1 km/h 48 % 0 in /  0.0 mm
13:54 80.2 °F /  26.8 °C 59.4 °F /  15.2 °C 29.9 in /  1013.8 hPa WSW 7.6 mph /  12.2 km/h 7.6 mph /  12.2 km/h 49 % 0 in /  0.0 mm
13:59 80.4 °F /  26.9 °C 59.5 °F /  15.3 °C 29.9 in /  1013.8 hPa WSW 9.2 mph /  14.8 km/h 9.2 mph /  14.8 km/h 49 % 0 in /  0.0 mm
14:04 79.9 °F /  26.6 °C 59 °F /  15.0 °C 30 in /  1014.8 hPa SW 9.2 mph /  14.8 km/h 9.2 mph /  14.8 km/h 49 % 0 in /  0.0 mm
14:09 80.2 °F /  26.8 °C 59.4 °F /  15.2 °C 30 in /  1014.8 hPa SW 9 mph /  14.5 km/h 9 mph /  14.5 km/h 49 % 0 in /  0.0 mm
14:14 79.7 °F /  26.5 °C 58.8 °F /  14.9 °C 30 in /  1014.8 hPa WSW 6 mph /  9.7 km/h 6 mph /  9.7 km/h 49 % 0 in /  0.0 mm
14:19 80.2 °F /  26.8 °C 59.4 °F /  15.2 °C 29.9 in /  1013.8 hPa SSW 5.8 mph /  9.3 km/h 5.8 mph /  9.3 km/h 49 % 0 in /  0.0 mm
14:24 80.2 °F /  26.8 °C 59.4 °F /  15.2 °C 29.9 in /  1013.8 hPa WNW 9.2 mph /  14.8 km/h 9.2 mph /  14.8 km/h 49 % 0 in /  0.0 mm
14:29 80.2 °F /  26.8 °C 59.4 °F /  15.2 °C 29.9 in /  1013.8 hPa SSE 6.9 mph /  11.1 km/h 6.9 mph /  11.1 km/h 49 % 0 in /  0.0 mm
14:34 80.6 °F /  27.0 °C 59.2 °F /  15.1 °C 29.9 in /  1013.8 hPa SW 2.6 mph /  4.2 km/h 2.6 mph /  4.2 km/h 48 % 0 in /  0.0 mm
14:39 80.6 °F /  27.0 °C 59.2 °F /  15.1 °C 29.9 in /  1013.8 hPa WSW 2.3 mph /  3.7 km/h 2.3 mph /  3.7 km/h 48 % 0 in /  0.0 mm
14:44 81 °F /  27.2 °C 59.4 °F /  15.2 °C 29.9 in /  1013.8 hPa SSW 5.8 mph /  9.3 km/h 5.8 mph /  9.3 km/h 48 % 0 in /  0.0 mm
14:49 81.5 °F /  27.5 °C 60.4 °F /  15.8 °C 29.9 in /  1013.8 hPa SW 4.6 mph /  7.4 km/h 4.6 mph /  7.4 km/h 49 % 0 in /  0.0 mm
14:54 81.3 °F /  27.4 °C 59.7 °F /  15.4 °C 29.9 in /  1013.8 hPa West 4.6 mph /  7.4 km/h 4.6 mph /  7.4 km/h 48 % 0 in /  0.0 mm
14:59 81 °F /  27.2 °C 59.4 °F /  15.2 °C 29.9 in /  1013.8 hPa SW 7.6 mph /  12.2 km/h 7.6 mph /  12.2 km/h 48 % 0 in /  0.0 mm
15:04 81.3 °F /  27.4 °C 59.7 °F /  15.4 °C 29.9 in /  1013.8 hPa SSE 3.5 mph /  5.6 km/h 3.5 mph /  5.6 km/h 48 % 0 in /  0.0 mm
15:09 80.2 °F /  26.8 °C 59.4 °F /  15.2 °C 29.9 in /  1013.8 hPa SW 8.1 mph /  13.0 km/h 8.1 mph /  13.0 km/h 49 % 0 in /  0.0 mm
15:14 79.9 °F /  26.6 °C 59 °F /  15.0 °C 29.9 in /  1013.8 hPa SSW 5.8 mph /  9.3 km/h 5.8 mph /  9.3 km/h 49 % 0 in /  0.0 mm
15:19 79.9 °F /  26.6 °C 59 °F /  15.0 °C 29.9 in /  1013.8 hPa SW 8.1 mph /  13.0 km/h 8.1 mph /  13.0 km/h 49 % 0 in /  0.0 mm
15:24 79.9 °F /  26.6 °C 59 °F /  15.0 °C 29.9 in /  1013.8 hPa SW 6.9 mph /  11.1 km/h 6.9 mph /  11.1 km/h 49 % 0 in /  0.0 mm
15:29 80.4 °F /  26.9 °C 59.5 °F /  15.3 °C 29.9 in /  1013.8 hPa West 6.9 mph /  11.1 km/h 6.9 mph /  11.1 km/h 49 % 0 in /  0.0 mm
15:34 80.1 °F /  26.7 °C 59.2 °F /  15.1 °C 30 in /  1014.8 hPa SW 8.1 mph /  13.0 km/h 8.1 mph /  13.0 km/h 49 % 0 in /  0.0 mm
15:39 81.1 °F /  27.3 °C 59.5 °F /  15.3 °C 30 in /  1014.8 hPa South 6.9 mph /  11.1 km/h 6.9 mph /  11.1 km/h 48 % 0 in /  0.0 mm
15:44 81.9 °F /  27.7 °C 60.3 °F /  15.7 °C 30 in /  1014.8 hPa WSW 8.1 mph /  13.0 km/h 8.1 mph /  13.0 km/h 48 % 0 in /  0.0 mm
15:49 81.1 °F /  27.3 °C 59.5 °F /  15.3 °C 29.9 in /  1013.8 hPa SW 8.7 mph /  14.0 km/h 8.7 mph /  14.0 km/h 48 % 0 in /  0.0 mm
15:54 81.1 °F /  27.3 °C 59.5 °F /  15.3 °C 29.9 in /  1013.8 hPa NNE 6.4 mph /  10.3 km/h 6.4 mph /  10.3 km/h 48 % 0 in /  0.0 mm
15:59 81.3 °F /  27.4 °C 59.7 °F /  15.4 °C 29.9 in /  1013.8 hPa SW 3.5 mph /  5.6 km/h 3.5 mph /  5.6 km/h 48 % 0 in /  0.0 mm
16:04 81.3 °F /  27.4 °C 59.7 °F /  15.4 °C 30 in /  1014.8 hPa SSW 8.1 mph /  13.0 km/h 8.1 mph /  13.0 km/h 48 % 0 in /  0.0 mm
16:09 81.5 °F /  27.5 °C 59.4 °F /  15.2 °C 30 in /  1014.8 hPa SW 4.6 mph /  7.4 km/h 4.6 mph /  7.4 km/h 47 % 0 in /  0.0 mm
16:14 80.4 °F /  26.9 °C 59.5 °F /  15.3 °C 30 in /  1014.8 hPa SSW 5.8 mph /  9.3 km/h 5.8 mph /  9.3 km/h 49 % 0 in /  0.0 mm
16:19 81 °F /  27.2 °C 59.4 °F /  15.2 °C 29.9 in /  1013.8 hPa WSW 3.8 mph /  6.1 km/h 3.8 mph /  6.1 km/h 48 % 0 in /  0.0 mm
16:24 81.1 °F /  27.3 °C 59.5 °F /  15.3 °C 29.9 in /  1013.8 hPa SSE 2.9 mph /  4.7 km/h 2.9 mph /  4.7 km/h 48 % 0 in /  0.0 mm
16:29 80.8 °F /  27.1 °C 59.4 °F /  15.2 °C 29.9 in /  1013.8 hPa West 3.5 mph /  5.6 km/h 3.5 mph /  5.6 km/h 48 % 0 in /  0.0 mm
16:34 80.6 °F /  27.0 °C 59.2 °F /  15.1 °C 29.9 in /  1013.8 hPa SW 5.8 mph /  9.3 km/h 5.8 mph /  9.3 km/h 48 % 0 in /  0.0 mm
16:39 79.7 °F /  26.5 °C 58.8 °F /  14.9 °C 29.9 in /  1013.8 hPa SW 6.9 mph /  11.1 km/h 6.9 mph /  11.1 km/h 49 % 0 in /  0.0 mm
16:44 80.1 °F /  26.7 °C 59.2 °F /  15.1 °C 29.9 in /  1013.8 hPa SSE 4.6 mph /  7.4 km/h 4.6 mph /  7.4 km/h 49 % 0 in /  0.0 mm
16:49 78.6 °F /  25.9 °C 57.9 °F /  14.4 °C 29.9 in /  1013.8 hPa SSW 4.6 mph /  7.4 km/h 4.6 mph /  7.4 km/h 49 % 0 in /  0.0 mm
16:54 78.8 °F /  26.0 °C 57.9 °F /  14.4 °C 29.9 in /  1013.8 hPa SSE 3.5 mph /  5.6 km/h 3.5 mph /  5.6 km/h 49 % 0 in /  0.0 mm
16:59 77.9 °F /  25.5 °C 57.7 °F /  14.3 °C 29.9 in /  1013.8 hPa ESE 5.8 mph /  9.3 km/h 5.8 mph /  9.3 km/h 50 % 0 in /  0.0 mm
17:04 77.7 °F /  25.4 °C 57.6 °F /  14.2 °C 29.9 in /  1013.8 hPa SSE 4 mph /  6.4 km/h 4 mph /  6.4 km/h 50 % 0 in /  0.0 mm
17:09 76.8 °F /  24.9 °C 57.4 °F /  14.1 °C 29.9 in /  1013.8 hPa South 8.1 mph /  13.0 km/h 8.1 mph /  13.0 km/h 51 % 0 in /  0.0 mm
17:19 76.3 °F /  24.6 °C 57.4 °F /  14.1 °C 29.9 in /  1013.8 hPa ESE 3.5 mph /  5.6 km/h 3.5 mph /  5.6 km/h 52 % 0 in /  0.0 mm
17:24 76.3 °F /  24.6 °C 57.4 °F /  14.1 °C 29.9 in /  1013.8 hPa SSE 4.6 mph /  7.4 km/h 4.6 mph /  7.4 km/h 52 % 0 in /  0.0 mm
17:29 75.9 °F /  24.4 °C 57 °F /  13.9 °C 29.9 in /  1013.8 hPa ESE 2.3 mph /  3.7 km/h 2.3 mph /  3.7 km/h 52 % 0 in /  0.0 mm
17:34 75.6 °F /  24.2 °C 56.7 °F /  13.7 °C 30 in /  1014.8 hPa ESE 2.3 mph /  3.7 km/h 2.3 mph /  3.7 km/h 52 % 0 in /  0.0 mm
17:39 75 °F /  23.9 °C 56.1 °F /  13.4 °C 30 in /  1014.8 hPa ESE 6.9 mph /  11.1 km/h 6.9 mph /  11.1 km/h 52 % 0 in /  0.0 mm
17:44 74.8 °F /  23.8 °C 55.9 °F /  13.3 °C 30 in /  1014.8 hPa ESE 5.8 mph /  9.3 km/h 5.8 mph /  9.3 km/h 52 % 0 in /  0.0 mm
17:49 74.7 °F /  23.7 °C 56.5 °F /  13.6 °C 30 in /  1014.8 hPa North 5.8 mph /  9.3 km/h 5.8 mph /  9.3 km/h 53 % 0 in /  0.0 mm
17:54 74.7 °F /  23.7 °C 56.5 °F /  13.6 °C 30 in /  1014.8 hPa ENE 5.8 mph /  9.3 km/h 5.8 mph /  9.3 km/h 53 % 0 in /  0.0 mm
17:59 74.3 °F /  23.5 °C 56.1 °F /  13.4 °C 30 in /  1014.8 hPa NE 6.9 mph /  11.1 km/h 6.9 mph /  11.1 km/h 53 % 0 in /  0.0 mm
18:04 74.1 °F /  23.4 °C 55.9 °F /  13.3 °C 30 in /  1014.8 hPa North 9.2 mph /  14.8 km/h 9.2 mph /  14.8 km/h 53 % 0 in /  0.0 mm
18:09 73.6 °F /  23.1 °C 56.5 °F /  13.6 °C 30 in /  1014.8 hPa ESE 8.1 mph /  13.0 km/h 8.1 mph /  13.0 km/h 55 % 0 in /  0.0 mm
18:14 72.7 °F /  22.6 °C 56.7 °F /  13.7 °C 30 in /  1014.8 hPa East 9.2 mph /  14.8 km/h 9.2 mph /  14.8 km/h 57 % 0 in /  0.0 mm
18:19 72 °F /  22.2 °C 56.5 °F /  13.6 °C 30 in /  1014.8 hPa East 6.9 mph /  11.1 km/h 6.9 mph /  11.1 km/h 58 % 0 in /  0.0 mm
18:24 71.8 °F /  22.1 °C 56.7 °F /  13.7 °C 30 in /  1014.8 hPa ESE 8.5 mph /  13.7 km/h 8.5 mph /  13.7 km/h 59 % 0 in /  0.0 mm
18:29 71.8 °F /  22.1 °C 57 °F /  13.9 °C 30 in /  1014.8 hPa SE 6.2 mph /  10.0 km/h 6.2 mph /  10.0 km/h 60 % 0 in /  0.0 mm
18:34 71.4 °F /  21.9 °C 57.4 °F /  14.1 °C 29.9 in /  1013.8 hPa ESE 5.8 mph /  9.3 km/h 5.8 mph /  9.3 km/h 61 % 0 in /  0.0 mm
18:35 71.4 °F /  21.9 °C 57.4 °F /  14.1 °C 29.9 in /  1013.8 hPa SE 4.7 mph /  7.6 km/h 4.7 mph /  7.6 km/h 61 % 0 in /  0.0 mm
18:40 71.6 °F /  22.0 °C 56.5 °F /  13.6 °C 29.9 in /  1013.8 hPa ESE 9.2 mph /  14.8 km/h 9.2 mph /  14.8 km/h 59 % 0 in /  0.0 mm
18:45 71.6 °F /  22.0 °C 56.5 °F /  13.6 °C 30 in /  1014.8 hPa ENE 8.5 mph /  13.7 km/h 8.5 mph /  13.7 km/h 59 % 0 in /  0.0 mm
18:50 71.6 °F /  22.0 °C 55.9 °F /  13.3 °C 30 in /  1014.8 hPa ESE 9.2 mph /  14.8 km/h 9.2 mph /  14.8 km/h 58 % 0 in /  0.0 mm
18:55 71.1 °F /  21.7 °C 56.8 °F /  13.8 °C 30 in /  1014.8 hPa East 4.6 mph /  7.4 km/h 4.6 mph /  7.4 km/h 61 % 0 in /  0.0 mm
19:00 70.2 °F /  21.2 °C 57 °F /  13.9 °C 30 in /  1014.8 hPa WNW 4.6 mph /  7.4 km/h 4.6 mph /  7.4 km/h 63 % 0 in /  0.0 mm
19:05 68.5 °F /  20.3 °C 56.7 °F /  13.7 °C 30 in /  1014.8 hPa SW 5.8 mph /  9.3 km/h 5.8 mph /  9.3 km/h 66 % 0.04 in /  1.0 mm
19:10 68 °F /  20.0 °C 57 °F /  13.9 °C 30 in /  1014.8 hPa WSW 4.6 mph /  7.4 km/h 4.6 mph /  7.4 km/h 68 % 0.04 in /  1.0 mm
19:15 67.5 °F /  19.7 °C 58.1 °F /  14.5 °C 30 in /  1015.8 hPa North 2.3 mph /  3.7 km/h 2.3 mph /  3.7 km/h 72 % 0.04 in /  1.0 mm
19:20 67.3 °F /  19.6 °C 58.3 °F /  14.6 °C 30 in /  1015.8 hPa West 2.3 mph /  3.7 km/h 2.3 mph /  3.7 km/h 73 % 0.04 in /  1.0 mm
19:25 67.3 °F /  19.6 °C 58.6 °F /  14.8 °C 30 in /  1015.8 hPa NNW 2.3 mph /  3.7 km/h 2.3 mph /  3.7 km/h 74 % 0.04 in /  1.0 mm
19:30 66.7 °F /  19.3 °C 58.3 °F /  14.6 °C 30 in /  1015.8 hPa NW 2.3 mph /  3.7 km/h 2.3 mph /  3.7 km/h 74 % 0.04 in /  1.0 mm
19:35 66.6 °F /  19.2 °C 58.5 °F /  14.7 °C 30 in /  1015.8 hPa WSW 1.2 mph /  1.9 km/h 1.6 mph /  2.6 km/h 75 % 0.04 in /  1.0 mm
19:40 66.2 °F /  19.0 °C 57.9 °F /  14.4 °C 30 in /  1015.8 hPa NW 2.4 mph /  3.9 km/h 2.4 mph /  3.9 km/h 75 % 0.04 in /  1.0 mm
19:45 66 °F /  18.9 °C 58.6 °F /  14.8 °C 30 in /  1015.8 hPa WNW 3.5 mph /  5.6 km/h 3.5 mph /  5.6 km/h 77 % 0.04 in /  1.0 mm
19:50 65.8 °F /  18.8 °C 58.8 °F /  14.9 °C 30 in /  1015.8 hPa West 1.2 mph /  1.9 km/h 1.2 mph /  1.9 km/h 78 % 0.04 in /  1.0 mm
19:55 65.7 °F /  18.7 °C 58.6 °F /  14.8 °C 30 in /  1015.8 hPa North 3.5 mph /  5.6 km/h 3.5 mph /  5.6 km/h 78 % 0.04 in /  1.0 mm
20:00 65.7 °F /  18.7 °C 59 °F /  15.0 °C 30 in /  1015.8 hPa NNW 1.2 mph /  1.9 km/h   79 % 0.04 in /  1.0 mm
20:05 65.7 °F /  18.7 °C 59 °F /  15.0 °C 30 in /  1015.8 hPa ESE 1.4 mph /  2.3 km/h 1.4 mph /  2.3 km/h 79 % 0 in /  0.0 mm
20:10 65.7 °F /  18.7 °C 59 °F /  15.0 °C 30 in /  1015.8 hPa WNW 1.2 mph /  1.9 km/h 1.2 mph /  1.9 km/h 79 % 0 in /  0.0 mm
20:15 65.5 °F /  18.6 °C 58.8 °F /  14.9 °C 30 in /  1015.8 hPa West 1.2 mph /  1.9 km/h 1.2 mph /  1.9 km/h 79 % 0 in /  0.0 mm
20:20 65.5 °F /  18.6 °C 59.5 °F /  15.3 °C 30 in /  1015.8 hPa Calm     81 % 0 in /  0.0 mm
20:25 65.3 °F /  18.5 °C 59.4 °F /  15.2 °C 30 in /  1015.8 hPa Calm     81 % 0 in /  0.0 mm
20:26 65.3 °F /  18.5 °C 59.4 °F /  15.2 °C 30 in /  1015.8 hPa Calm     81 % 0 in /  0.0 mm
20:30 61.5 °F /  16.4 °C 58.3 °F /  14.6 °C 30.1 in /  1017.8 hPa Calm     89 % 0 in /  0.0 mm
20:31 65.3 °F /  18.5 °C 59.4 °F /  15.2 °C 30 in /  1015.8 hPa Calm     81 % 0 in /  0.0 mm
20:36 65.1 °F /  18.4 °C 59.2 °F /  15.1 °C 30 in /  1015.8 hPa Calm     81 % 0 in /  0.0 mm
20:40 61.7 °F /  16.5 °C 58.6 °F /  14.8 °C 30.1 in /  1017.8 hPa NE 2 mph /  3.2 km/h 3 mph /  4.8 km/h 90 % 0 in /  0.0 mm
20:41 64.8 °F /  18.2 °C 58.8 °F /  14.9 °C 30 in /  1015.8 hPa SW 1.6 mph /  2.6 km/h   81 % 0 in /  0.0 mm
20:46 64.8 °F /  18.2 °C 58.8 °F /  14.9 °C 30 in /  1015.8 hPa WSW 1.2 mph /  1.9 km/h   81 % 0 in /  0.0 mm
20:50 61.5 °F /  16.4 °C 58.3 °F /  14.6 °C 30.1 in /  1017.8 hPa East 2 mph /  3.2 km/h 3 mph /  4.8 km/h 89 % 0 in /  0.0 mm
20:51 64.9 °F /  18.3 °C 59 °F /  15.0 °C 30 in /  1015.8 hPa WSW 2.4 mph /  3.9 km/h   81 % 0 in /  0.0 mm
20:56 65.1 °F /  18.4 °C 59.2 °F /  15.1 °C 30 in /  1015.8 hPa SW 1.2 mph /  1.9 km/h   81 % 0 in /  0.0 mm
21:00 61.3 °F /  16.3 °C 57.7 °F /  14.3 °C 30.1 in /  1017.8 hPa SW 2 mph /  3.2 km/h 3 mph /  4.8 km/h 88 % 0 in /  0.0 mm
21:01 65.3 °F /  18.5 °C 59.4 °F /  15.2 °C 30 in /  1016.8 hPa West 2.3 mph /  3.7 km/h 2.3 mph /  3.7 km/h 81 % 0 in /  0.0 mm
21:06 65.3 °F /  18.5 °C 60.1 °F /  15.6 °C 30 in /  1016.8 hPa WSW 1.2 mph /  1.9 km/h   83 % 0 in /  0.0 mm
21:10 61.3 °F /  16.3 °C 58.1 °F /  14.5 °C 30.1 in /  1017.8 hPa Calm   2 mph /  3.2 km/h 89 % 0 in /  0.0 mm
21:11 65.1 °F /  18.4 °C 59.5 °F /  15.3 °C 30 in /  1016.8 hPa SW 2.3 mph /  3.7 km/h 2.3 mph /  3.7 km/h 82 % 0 in /  0.0 mm
21:16 65.3 °F /  18.5 °C 60.1 °F /  15.6 °C 30 in /  1015.8 hPa NE 3.1 mph /  5.0 km/h 3.1 mph /  5.0 km/h 83 % 0 in /  0.0 mm
21:20 61.2 °F /  16.2 °C 57.6 °F /  14.2 °C 30.1 in /  1017.8 hPa West 2 mph /  3.2 km/h 2 mph /  3.2 km/h 88 % 0 in /  0.0 mm
21:21 65.1 °F /  18.4 °C 59.7 °F /  15.4 °C 30 in /  1015.8 hPa WNW 2.3 mph /  3.7 km/h 2.3 mph /  3.7 km/h 83 % 0 in /  0.0 mm
21:26 64.9 °F /  18.3 °C 59.7 °F /  15.4 °C 30 in /  1015.8 hPa ENE 2.4 mph /  3.9 km/h 2.4 mph /  3.9 km/h 83 % 0 in /  0.0 mm
21:30 61 °F /  16.1 °C 57.4 °F /  14.1 °C 30.1 in /  1017.8 hPa WSW 1 mph /  1.6 km/h 3 mph /  4.8 km/h 88 % 0 in /  0.0 mm
21:31 64.4 °F /  18.0 °C 58.8 °F /  14.9 °C 30 in /  1016.8 hPa NNE 2.3 mph /  3.7 km/h 2.3 mph /  3.7 km/h 82 % 0 in /  0.0 mm
21:36 64.6 °F /  18.1 °C 59.4 °F /  15.2 °C 30 in /  1016.8 hPa West 1.6 mph /  2.6 km/h 1.6 mph /  2.6 km/h 83 % 0 in /  0.0 mm
21:40 60.8 °F /  16.0 °C 57.2 °F /  14.0 °C 30.1 in /  1018.8 hPa WSW 1 mph /  1.6 km/h 3 mph /  4.8 km/h 88 % 0 in /  0.0 mm
21:41 64.8 °F /  18.2 °C 59.5 °F /  15.3 °C 30 in /  1016.8 hPa SW 2.3 mph /  3.7 km/h 2.3 mph /  3.7 km/h 83 % 0 in /  0.0 mm
21:46 64.2 °F /  17.9 °C 58.8 °F /  14.9 °C 30.1 in /  1017.8 hPa SW 2.3 mph /  3.7 km/h 2.3 mph /  3.7 km/h 83 % 0 in /  0.0 mm
21:50 60.8 °F /  16.0 °C 57.6 °F /  14.2 °C 30.1 in /  1018.8 hPa Calm   2 mph /  3.2 km/h 89 % 0 in /  0.0 mm
21:51 63.7 °F /  17.6 °C 58.5 °F /  14.7 °C 30.1 in /  1017.8 hPa WSW 2.3 mph /  3.7 km/h 2.3 mph /  3.7 km/h 83 % 0 in /  0.0 mm
21:56 63.7 °F /  17.6 °C 58.5 °F /  14.7 °C 30.1 in /  1017.8 hPa SW 2.3 mph /  3.7 km/h 2.3 mph /  3.7 km/h 83 % 0 in /  0.0 mm
22:00 60.4 °F /  15.8 °C 56.8 °F /  13.8 °C 30.1 in /  1018.8 hPa SW 2 mph /  3.2 km/h 3 mph /  4.8 km/h 88 % 0 in /  0.0 mm
22:01 63.5 °F /  17.5 °C 58.3 °F /  14.6 °C 30.1 in /  1017.8 hPa SW 2.3 mph /  3.7 km/h 2.3 mph /  3.7 km/h 83 % 0 in /  0.0 mm
22:06 63.1 °F /  17.3 °C 57.9 °F /  14.4 °C 30.1 in /  1017.8 hPa WSW 2.3 mph /  3.7 km/h 2.3 mph /  3.7 km/h 83 % 0 in /  0.0 mm
22:10 60.1 °F /  15.6 °C 56.1 °F /  13.4 °C 30.1 in /  1017.8 hPa WSW 2 mph /  3.2 km/h 4 mph /  6.4 km/h 87 % 0 in /  0.0 mm
22:11 63 °F /  17.2 °C 57.7 °F /  14.3 °C 30.1 in /  1017.8 hPa WSW 1.2 mph /  1.9 km/h   83 % 0 in /  0.0 mm
22:16 62.6 °F /  17.0 °C 57 °F /  13.9 °C 30.1 in /  1017.8 hPa SSW 2.3 mph /  3.7 km/h 2.3 mph /  3.7 km/h 82 % 0 in /  0.0 mm
22:20 59.7 °F /  15.4 °C 55.6 °F /  13.1 °C 30.1 in /  1017.8 hPa WSW 3 mph /  4.8 km/h 4 mph /  6.4 km/h 86 % 0 in /  0.0 mm
22:21 62.4 °F /  16.9 °C 57.6 °F /  14.2 °C 30.1 in /  1017.8 hPa WSW 2.3 mph /  3.7 km/h 2.3 mph /  3.7 km/h 84 % 0 in /  0.0 mm
22:26 62.2 °F /  16.8 °C 57.4 °F /  14.1 °C 30.1 in /  1017.8 hPa Calm     84 % 0 in /  0.0 mm
22:30 59.5 °F /  15.3 °C 55.2 °F /  12.9 °C 30.1 in /  1017.8 hPa West 1 mph /  1.6 km/h 2 mph /  3.2 km/h 86 % 0 in /  0.0 mm
22:31 62.1 °F /  16.7 °C 56.8 °F /  13.8 °C 30.1 in /  1017.8 hPa SW 2.3 mph /  3.7 km/h 2.4 mph /  3.9 km/h 83 % 0 in /  0.0 mm
22:36 62.1 °F /  16.7 °C 57.2 °F /  14.0 °C 30.1 in /  1017.8 hPa SW 2.3 mph /  3.7 km/h   84 % 0 in /  0.0 mm
22:40 59.5 °F /  15.3 °C 55.8 °F /  13.2 °C 30.1 in /  1017.8 hPa West 1 mph /  1.6 km/h 3 mph /  4.8 km/h 87 % 0 in /  0.0 mm
22:41 61.9 °F /  16.6 °C 56.7 °F /  13.7 °C 30.1 in /  1017.8 hPa SW 3.5 mph /  5.6 km/h 3.5 mph /  5.6 km/h 83 % 0 in /  0.0 mm
22:46 62.1 °F /  16.7 °C 57.6 °F /  14.2 °C 30.1 in /  1018.8 hPa Calm     85 % 0 in /  0.0 mm
22:50 59.5 °F /  15.3 °C 55.2 °F /  12.9 °C 30.1 in /  1017.8 hPa West 1 mph /  1.6 km/h 2 mph /  3.2 km/h 86 % 0 in /  0.0 mm
22:51 62.1 °F /  16.7 °C 57.6 °F /  14.2 °C 30.1 in /  1018.8 hPa Calm     85 % 0 in /  0.0 mm
22:56 61.7 °F /  16.5 °C 57 °F /  13.9 °C 30.1 in /  1018.8 hPa Calm     85 % 0 in /  0.0 mm
23:00 59.5 °F /  15.3 °C 55.2 °F /  12.9 °C 30.1 in /  1017.8 hPa WSW 2 mph /  3.2 km/h 3 mph /  4.8 km/h 86 % 0 in /  0.0 mm
23:01 61.7 °F /  16.5 °C 57 °F /  13.9 °C 30.1 in /  1018.8 hPa WSW 1.4 mph /  2.3 km/h 1.4 mph /  2.3 km/h 85 % 0 in /  0.0 mm
23:06 61.7 °F /  16.5 °C 57 °F /  13.9 °C 30.1 in /  1018.8 hPa SW 2.3 mph /  3.7 km/h 2.3 mph /  3.7 km/h 85 % 0 in /  0.0 mm
23:10 59.4 °F /  15.2 °C 54.9 °F /  12.7 °C 30.1 in /  1017.8 hPa Calm   3 mph /  4.8 km/h 85 % 0 in /  0.0 mm
23:11 61.7 °F /  16.5 °C 57 °F /  13.9 °C 30.1 in /  1018.8 hPa Calm     85 % 0 in /  0.0 mm
23:16 61.7 °F /  16.5 °C 57.6 °F /  14.2 °C 30.1 in /  1017.8 hPa WNW 2.3 mph /  3.7 km/h 2.3 mph /  3.7 km/h 86 % 0 in /  0.0 mm
23:20 59.5 °F /  15.3 °C 55 °F /  12.8 °C 30.1 in /  1017.8 hPa Calm   1 mph /  1.6 km/h 85 % 0 in /  0.0 mm
23:21 61.7 °F /  16.5 °C 57.6 °F /  14.2 °C 30.1 in /  1017.8 hPa SW 0.9 mph /  1.4 km/h 0.9 mph /  1.4 km/h 86 % 0 in /  0.0 mm
23:26 61.7 °F /  16.5 °C 57.6 °F /  14.2 °C 30.1 in /  1017.8 hPa WSW 1.2 mph /  1.9 km/h   86 % 0.28 in /  7.1 mm
23:30 59.4 °F /  15.2 °C 54.9 °F /  12.7 °C 30.1 in /  1017.8 hPa SW 1 mph /  1.6 km/h 2 mph /  3.2 km/h 85 % 0 in /  0.0 mm
23:31 61.7 °F /  16.5 °C 57.7 °F /  14.3 °C 30.1 in /  1017.8 hPa Calm     87 % 0.28 in /  7.1 mm
23:36 61.7 °F /  16.5 °C 57.7 °F /  14.3 °C 30.1 in /  1017.8 hPa Calm     87 % 0.28 in /  7.1 mm
23:40 59 °F /  15.0 °C 54.1 °F /  12.3 °C 30.1 in /  1017.8 hPa SW 3 mph /  4.8 km/h 3 mph /  4.8 km/h 84 % 0 in /  0.0 mm
23:41 61.5 °F /  16.4 °C 57.6 °F /  14.2 °C 30.1 in /  1017.8 hPa WSW 1.2 mph /  1.9 km/h   87 % 0.28 in /  7.1 mm
23:46 61.5 °F /  16.4 °C 57.6 °F /  14.2 °C 30.1 in /  1018.8 hPa Calm     87 % 0.28 in /  7.1 mm
23:50 59 °F /  15.0 °C 54.1 °F /  12.3 °C 30.1 in /  1017.8 hPa WSW 1 mph /  1.6 km/h 2 mph /  3.2 km/h 84 % 0 in /  0.0 mm
23:51 61.5 °F /  16.4 °C 57.6 °F /  14.2 °C 30.1 in /  1018.8 hPa Calm     87 % 0.28 in /  7.1 mm
Meteo Sesrovires
Elogis d' Weather Underground - 3.75 mb

Guio original per  Jim McMurry - jmcmurry@mwt.net Adaptat per a la plantilla per  Wim van der Kuil - Leuven-Template.eu

Trobareu la nostra informacio del temps tambe a:

Weather Underground

AWEKAS